createdAt,value
2023-03-07T00:00:09.156Z,13.20
2023-03-07T00:02:37.439Z,12.93
2023-03-07T00:05:06.684Z,14.03
2023-03-07T00:07:35.338Z,14.10
2023-03-07T00:10:03.612Z,11.77
2023-03-07T00:12:33.347Z,12.10
2023-03-07T00:15:01.645Z,12.50
2023-03-07T00:17:29.885Z,12.83
2023-03-07T00:19:58.158Z,11.77
2023-03-07T00:22:26.460Z,13.30
2023-03-07T00:24:54.826Z,12.37
2023-03-07T00:27:23.157Z,13.10
2023-03-07T00:29:52.845Z,12.83
2023-03-07T00:32:21.360Z,13.43
2023-03-07T00:34:49.667Z,12.63
2023-03-07T00:37:18.166Z,13.33
2023-03-07T00:39:46.716Z,13.33
2023-03-07T00:42:15.077Z,12.63
2023-03-07T00:44:43.585Z,11.97
2023-03-07T00:47:13.635Z,12.53
2023-03-07T00:49:42.085Z,12.40
2023-03-07T00:52:10.344Z,12.07
2023-03-07T00:54:38.689Z,11.70
2023-03-07T00:57:07.105Z,10.80
2023-03-07T00:59:35.486Z,10.40
2023-03-07T01:02:03.808Z,10.63
2023-03-07T01:04:33.753Z,10.13
2023-03-07T01:07:02.044Z,9.23
2023-03-07T01:09:30.536Z,9.00
2023-03-07T01:11:59.297Z,9.20
2023-03-07T01:14:27.647Z,8.73
2023-03-07T01:16:56.215Z,9.03
2023-03-07T01:19:24.697Z,10.07
2023-03-07T01:21:56.635Z,10.43
2023-03-07T01:24:25.209Z,10.90
2023-03-07T01:26:53.804Z,10.47
2023-03-07T01:29:24.119Z,9.77
2023-03-07T01:31:52.462Z,9.40
2023-03-07T01:34:20.925Z,8.87
2023-03-07T01:36:51.857Z,9.07
2023-03-07T01:39:21.660Z,7.20
2023-03-07T01:42:03.017Z,6.87
2023-03-07T01:44:32.758Z,5.93
2023-03-07T01:47:02.085Z,6.07
2023-03-07T01:49:50.478Z,4.90
2023-03-07T01:52:22.031Z,5.07
2023-03-07T01:54:59.572Z,4.83
2023-03-07T01:57:31.667Z,3.70
2023-03-07T02:00:05.701Z,3.63
2023-03-07T02:02:45.130Z,3.53
2023-03-07T02:05:25.420Z,4.27
2023-03-07T02:07:55.330Z,3.80
2023-03-07T02:10:28.848Z,3.70
2023-03-07T02:12:57.305Z,3.33
2023-03-07T02:15:25.893Z,3.93
2023-03-07T02:17:54.829Z,3.97
2023-03-07T02:20:33.295Z,3.50
2023-03-07T02:23:02.381Z,2.70
2023-03-07T02:25:37.960Z,3.03
2023-03-07T02:28:11.573Z,2.70
2023-03-07T02:30:39.998Z,2.50
2023-03-07T02:33:08.381Z,2.33
2023-03-07T02:35:36.686Z,2.13
2023-03-07T02:38:07.634Z,2.30
2023-03-07T02:40:35.998Z,2.20
2023-03-07T02:43:09.542Z,1.93
2023-03-07T02:45:41.679Z,1.87
2023-03-07T02:48:10.034Z,2.00
2023-03-07T02:50:38.375Z,2.00
2023-03-07T02:53:06.951Z,2.80
2023-03-07T02:55:35.185Z,1.67
2023-03-07T02:58:05.996Z,2.17
2023-03-07T03:00:34.508Z,1.60
2023-03-07T03:03:04.315Z,1.73
2023-03-07T03:05:32.967Z,1.73
2023-03-07T03:08:01.252Z,2.07
2023-03-07T03:10:31.919Z,2.17
2023-03-07T03:13:02.308Z,2.10
2023-03-07T03:15:31.019Z,2.17
2023-03-07T03:17:59.332Z,2.03
2023-03-07T03:20:29.097Z,1.70
2023-03-07T03:22:58.237Z,2.00
2023-03-07T03:25:27.311Z,1.90
2023-03-07T03:27:55.969Z,1.93
2023-03-07T03:30:26.779Z,1.80
2023-03-07T03:32:56.513Z,1.87
2023-03-07T03:35:25.018Z,1.90
2023-03-07T03:37:57.954Z,1.33
2023-03-07T03:40:26.901Z,1.93
2023-03-07T03:42:55.218Z,2.10
2023-03-07T03:45:26.474Z,2.00
2023-03-07T03:47:55.025Z,2.30
2023-03-07T03:50:23.312Z,2.10
2023-03-07T03:52:51.577Z,2.07
2023-03-07T03:55:21.277Z,2.10
2023-03-07T03:57:49.624Z,1.60
2023-03-07T04:00:21.152Z,2.03
2023-03-07T04:02:50.092Z,2.37
2023-03-07T04:05:19.915Z,2.10
2023-03-07T04:07:51.416Z,2.33
2023-03-07T04:10:22.252Z,1.77
2023-03-07T04:12:50.746Z,2.10
2023-03-07T04:15:19.166Z,2.57
2023-03-07T04:17:47.535Z,1.80
2023-03-07T04:20:17.792Z,1.87
2023-03-07T04:22:48.310Z,2.10
2023-03-07T04:25:16.785Z,1.43
2023-03-07T04:27:46.434Z,2.30
2023-03-07T04:30:15.158Z,1.43
2023-03-07T04:32:43.639Z,1.50
2023-03-07T04:35:12.020Z,1.80
2023-03-07T04:37:40.660Z,1.93
2023-03-07T04:40:10.079Z,1.57
2023-03-07T04:42:38.359Z,1.47
2023-03-07T04:45:09.622Z,2.13
2023-03-07T04:47:37.982Z,2.17
2023-03-07T04:50:07.154Z,1.80
2023-03-07T04:52:37.100Z,1.97
2023-03-07T04:55:06.083Z,1.70
2023-03-07T04:57:34.522Z,1.33
2023-03-07T05:00:03.406Z,1.50
2023-03-07T05:02:33.184Z,1.53
2023-03-07T05:05:03.619Z,1.60
2023-03-07T05:07:32.473Z,1.10
2023-03-07T05:10:00.900Z,1.50
2023-03-07T05:12:30.167Z,1.60
2023-03-07T05:15:00.859Z,1.63
2023-03-07T05:17:32.689Z,1.53
2023-03-07T05:20:01.069Z,1.33
2023-03-07T05:22:29.778Z,1.77
2023-03-07T05:24:58.543Z,1.83
2023-03-07T05:27:27.469Z,1.40
2023-03-07T05:29:55.716Z,1.57
2023-03-07T05:32:24.831Z,1.57
2023-03-07T05:34:54.704Z,1.73
2023-03-07T05:37:24.342Z,2.30
2023-03-07T05:39:53.395Z,1.63
2023-03-07T05:42:21.848Z,1.60
2023-03-07T05:44:50.763Z,1.90
2023-03-07T05:47:19.108Z,1.80
2023-03-07T05:49:47.423Z,1.80
2023-03-07T05:52:17.472Z,1.57
2023-03-07T05:54:45.876Z,1.80
2023-03-07T05:57:14.470Z,1.70
2023-03-07T05:59:42.906Z,2.00
2023-03-07T06:02:11.233Z,1.73
2023-03-07T06:04:39.543Z,1.57
2023-03-07T06:07:07.828Z,1.80
2023-03-07T06:09:37.628Z,1.83
2023-03-07T06:12:06.439Z,2.20
2023-03-07T06:14:34.710Z,1.90
2023-03-07T06:17:04.160Z,2.27
2023-03-07T06:19:34.026Z,1.50
2023-03-07T06:22:02.620Z,2.07
2023-03-07T06:24:31.597Z,1.87
2023-03-07T06:27:01.326Z,1.97
2023-03-07T06:29:30.276Z,1.73
2023-03-07T06:31:59.538Z,1.67
2023-03-07T06:34:27.978Z,1.80
2023-03-07T06:36:57.613Z,2.57
2023-03-07T06:39:27.940Z,1.60
2023-03-07T06:41:57.153Z,1.37
2023-03-07T06:44:26.904Z,1.83
2023-03-07T06:46:55.335Z,1.67
2023-03-07T06:49:24.251Z,1.60
2023-03-07T06:51:53.153Z,1.30
2023-03-07T06:54:21.762Z,1.40
2023-03-07T06:56:51.660Z,1.00
2023-03-07T06:59:23.421Z,1.40
2023-03-07T07:01:53.297Z,0.90
2023-03-07T07:04:22.657Z,1.33
2023-03-07T07:06:52.076Z,0.87
2023-03-07T07:09:20.423Z,1.00
2023-03-07T07:11:48.790Z,1.20
2023-03-07T07:14:17.213Z,1.00
2023-03-07T07:16:45.770Z,1.03
2023-03-07T07:19:15.447Z,1.03
2023-03-07T07:21:43.981Z,0.83
2023-03-07T07:24:14.110Z,0.77
2023-03-07T07:26:42.442Z,0.90
2023-03-07T07:29:11.191Z,1.17
2023-03-07T07:31:39.643Z,1.23
2023-03-07T07:34:08.893Z,1.23
2023-03-07T07:36:39.289Z,1.37
2023-03-07T07:39:09.182Z,0.83
2023-03-07T07:41:39.671Z,1.13
2023-03-07T07:44:08.091Z,0.93
2023-03-07T07:46:42.603Z,1.00
2023-03-07T07:49:10.966Z,1.30
2023-03-07T07:51:41.181Z,1.50
2023-03-07T07:54:10.152Z,1.40
2023-03-07T07:56:38.444Z,1.70
2023-03-07T07:59:06.755Z,1.30
2023-03-07T08:01:35.349Z,1.57
2023-03-07T08:04:03.757Z,1.20
2023-03-07T08:06:32.062Z,1.70
2023-03-07T08:09:01.946Z,1.80
2023-03-07T08:11:30.422Z,1.70
2023-03-07T08:13:58.701Z,1.87
2023-03-07T08:16:27.077Z,1.57
2023-03-07T08:18:56.987Z,1.90
2023-03-07T08:21:26.289Z,2.13
2023-03-07T08:23:55.192Z,1.97
2023-03-07T08:26:25.337Z,2.10
2023-03-07T08:28:53.770Z,2.30
2023-03-07T08:31:24.446Z,1.57
2023-03-07T08:33:53.717Z,2.03
2023-03-07T08:36:22.114Z,1.73
2023-03-07T08:38:52.199Z,2.10
2023-03-07T08:41:21.600Z,2.00
2023-03-07T08:43:51.353Z,1.80
2023-03-07T08:46:19.706Z,2.07
2023-03-07T08:48:48.149Z,1.83
2023-03-07T08:51:28.909Z,2.00
2023-03-07T08:53:58.536Z,1.57
2023-03-07T08:56:27.335Z,2.00
2023-03-07T08:58:56.849Z,1.50
2023-03-07T09:01:25.035Z,1.37
2023-03-07T09:03:53.709Z,2.00
2023-03-07T09:06:22.578Z,1.83
2023-03-07T09:08:51.423Z,1.60
2023-03-07T09:11:21.733Z,1.90
2023-03-07T09:13:52.806Z,1.77
2023-03-07T09:16:23.995Z,1.70
2023-03-07T09:18:52.408Z,1.43
2023-03-07T09:21:20.561Z,1.90
2023-03-07T09:23:48.831Z,2.00
2023-03-07T09:26:19.955Z,1.43
2023-03-07T09:28:48.281Z,1.87
2023-03-07T09:31:18.656Z,1.37
2023-03-07T09:33:48.254Z,1.67
2023-03-07T09:36:18.146Z,1.43
2023-03-07T09:38:47.054Z,1.27
2023-03-07T09:41:51.542Z,1.83
2023-03-07T09:44:27.494Z,1.63
2023-03-07T09:47:59.760Z,1.40
2023-03-07T09:50:36.081Z,2.00
2023-03-07T09:53:22.098Z,1.60
2023-03-07T09:56:21.998Z,1.47
2023-03-07T09:59:32.986Z,1.73
2023-03-07T10:02:23.698Z,2.00
2023-03-07T10:04:57.198Z,1.50
2023-03-07T10:07:27.731Z,1.50
2023-03-07T10:10:01.878Z,1.70
2023-03-07T10:12:49.826Z,1.50
2023-03-07T10:15:35.740Z,1.40
2023-03-07T10:18:25.741Z,1.80
2023-03-07T10:21:01.026Z,1.60
2023-03-07T10:23:51.758Z,1.70
2023-03-07T10:26:28.278Z,1.60
2023-03-07T10:29:00.320Z,1.80
2023-03-07T10:31:37.326Z,1.50
2023-03-07T10:34:26.254Z,1.50
2023-03-07T10:37:08.722Z,1.67
2023-03-07T10:39:43.634Z,1.53
2023-03-07T10:42:13.232Z,1.40
2023-03-07T10:44:41.966Z,1.50
2023-03-07T10:47:22.077Z,1.70
2023-03-07T10:49:52.438Z,1.65
2023-03-07T10:52:32.602Z,2.20
2023-03-07T10:55:34.892Z,1.30
2023-03-07T10:58:19.740Z,1.70
2023-03-07T11:00:59.556Z,1.60
2023-03-07T11:03:52.727Z,1.77
2023-03-07T11:06:35.042Z,1.90
2023-03-07T11:09:26.755Z,1.70
2023-03-07T11:11:58.881Z,1.70
2023-03-07T11:14:31.502Z,2.27
2023-03-07T11:17:19.460Z,1.90
2023-03-07T11:19:49.217Z,1.33
2023-03-07T11:22:24.835Z,2.00
2023-03-07T11:25:00.508Z,1.50
2023-03-07T11:27:36.325Z,1.35
2023-03-07T11:30:29.808Z,1.40
2023-03-07T11:33:08.281Z,2.15
2023-03-07T11:35:53.984Z,1.48
2023-03-07T11:38:32.851Z,1.50
2023-03-07T11:41:07.010Z,2.05
2023-03-07T11:44:05.708Z,1.55
2023-03-07T11:46:44.312Z,1.88
2023-03-07T11:49:28.850Z,2.15
2023-03-07T11:52:08.895Z,1.73
2023-03-07T11:54:47.149Z,1.90
2023-03-07T11:57:27.163Z,1.67
2023-03-07T12:00:15.626Z,1.90
2023-03-07T12:03:05.832Z,1.42
2023-03-07T12:05:51.194Z,1.42
2023-03-07T12:08:47.183Z,1.50
2023-03-07T12:11:32.885Z,1.65
2023-03-07T12:14:11.770Z,1.40
2023-03-07T12:16:52.661Z,1.70
2023-03-07T12:19:46.269Z,1.17
2023-03-07T12:22:29.019Z,1.30
2023-03-07T12:25:09.601Z,1.20
2023-03-07T12:27:42.046Z,1.60
2023-03-07T12:30:17.713Z,1.27
2023-03-07T12:32:48.139Z,1.67
2023-03-07T12:35:24.184Z,1.67
2023-03-07T12:37:57.838Z,1.38
2023-03-07T12:40:33.903Z,1.58
2023-03-07T12:43:12.393Z,1.15
2023-03-07T12:45:46.932Z,1.00
2023-03-07T12:48:22.376Z,1.27
2023-03-07T12:50:58.352Z,1.02
2023-03-07T12:53:34.890Z,1.05
2023-03-07T12:56:09.372Z,1.10
2023-03-07T12:58:43.712Z,1.10
2023-03-07T13:01:16.850Z,1.48
2023-03-07T13:03:52.649Z,1.50
2023-03-07T13:06:23.406Z,1.35
2023-03-07T13:08:53.575Z,1.48
2023-03-07T13:11:23.709Z,1.65
2023-03-07T13:13:55.391Z,1.00
2023-03-07T13:16:44.117Z,1.10
2023-03-07T13:20:04.934Z,1.73
2023-03-07T13:23:13.156Z,1.33
2023-03-07T13:25:56.338Z,1.20
2023-03-07T13:28:53.206Z,1.20
2023-03-07T13:31:39.550Z,1.30
2023-03-07T13:34:48.231Z,1.17
2023-03-07T13:37:51.182Z,1.38
2023-03-07T13:40:48.759Z,1.48
2023-03-07T13:43:49.630Z,1.95
2023-03-07T13:46:51.148Z,1.40
2023-03-07T13:49:45.021Z,1.33
2023-03-07T13:52:41.261Z,1.42
2023-03-07T13:55:26.293Z,1.80
2023-03-07T13:57:59.147Z,1.15
2023-03-07T14:00:38.077Z,1.13
2023-03-07T14:03:24.226Z,1.25
2023-03-07T14:05:54.451Z,1.48
2023-03-07T14:08:27.253Z,1.40
2023-03-07T14:10:55.401Z,1.42
2023-03-07T14:13:45.312Z,1.48
2023-03-07T14:16:30.704Z,1.20
2023-03-07T14:19:09.440Z,1.40
2023-03-07T14:21:51.451Z,1.23
2023-03-07T14:24:39.632Z,1.23
2023-03-07T14:27:13.581Z,0.93
2023-03-07T14:29:52.062Z,1.00
2023-03-07T14:32:25.387Z,1.35
2023-03-07T14:34:54.372Z,0.90
2023-03-07T14:37:26.448Z,1.05
2023-03-07T14:40:14.528Z,0.90
2023-03-07T14:42:49.761Z,1.17
2023-03-07T14:45:24.976Z,0.95
2023-03-07T14:48:17.723Z,0.88
2023-03-07T14:50:46.302Z,1.33
2023-03-07T14:53:20.302Z,1.30
2023-03-07T14:55:51.244Z,1.45
2023-03-07T14:58:22.452Z,1.08
2023-03-07T15:01:00.452Z,1.02
2023-03-07T15:03:29.362Z,1.60
2023-03-07T15:05:58.833Z,0.65
2023-03-07T15:08:29.742Z,0.88
2023-03-07T15:11:00.933Z,1.67
2023-03-07T15:13:34.394Z,1.10
2023-03-07T15:16:06.732Z,1.00
2023-03-07T15:18:38.146Z,1.02
2023-03-07T15:21:07.713Z,0.98
2023-03-07T15:23:36.232Z,0.98
2023-03-07T15:26:06.662Z,1.10
2023-03-07T15:28:36.936Z,0.80
2023-03-07T15:31:06.972Z,0.90
2023-03-07T15:33:35.322Z,1.00
2023-03-07T15:36:27.640Z,0.90
2023-03-07T15:39:26.001Z,0.75
2023-03-07T15:42:01.342Z,0.95
2023-03-07T15:44:29.848Z,1.20
2023-03-07T15:47:04.176Z,1.23
2023-03-07T15:49:41.968Z,0.82
2023-03-07T15:52:23.640Z,0.80
2023-03-07T15:54:53.636Z,0.75
2023-03-07T15:57:24.485Z,0.80
2023-03-07T15:59:57.089Z,0.82
2023-03-07T16:02:42.193Z,0.80
2023-03-07T16:05:38.932Z,0.73
2023-03-07T16:08:13.021Z,0.80
2023-03-07T16:10:46.860Z,0.70
2023-03-07T16:13:17.948Z,0.80
2023-03-07T16:15:46.008Z,0.80
2023-03-07T16:18:23.130Z,1.13
2023-03-07T16:20:51.176Z,1.00
2023-03-07T16:23:19.217Z,1.10
2023-03-07T16:25:47.402Z,0.77
2023-03-07T16:28:15.546Z,0.63
2023-03-07T16:30:45.452Z,0.68
2023-03-07T16:33:14.204Z,1.30
2023-03-07T16:35:45.376Z,1.00
2023-03-07T16:38:13.428Z,0.80
2023-03-07T16:40:43.733Z,0.82
2023-03-07T16:43:32.953Z,0.88
2023-03-07T16:46:02.246Z,0.90
2023-03-07T16:48:30.287Z,1.02
2023-03-07T16:50:59.985Z,0.93
2023-03-07T16:53:28.064Z,1.05
2023-03-07T16:55:58.504Z,0.82
2023-03-07T16:58:29.412Z,0.98
2023-03-07T17:00:59.070Z,0.93
2023-03-07T17:03:29.775Z,1.00
2023-03-07T17:05:59.219Z,1.10
2023-03-07T17:08:27.220Z,1.25
2023-03-07T17:10:55.296Z,0.90
2023-03-07T17:13:23.433Z,0.82
2023-03-07T17:15:51.485Z,1.48
2023-03-07T17:18:19.548Z,1.10
2023-03-07T17:20:47.610Z,1.13
2023-03-07T17:23:17.151Z,1.33
2023-03-07T17:25:45.167Z,0.70
2023-03-07T17:28:15.754Z,0.70
2023-03-07T17:30:45.570Z,1.20
2023-03-07T17:33:15.027Z,1.03
2023-03-07T17:35:43.400Z,0.87
2023-03-07T17:38:11.517Z,1.47
2023-03-07T17:40:41.180Z,0.80
2023-03-07T17:43:09.232Z,0.90
2023-03-07T17:45:39.704Z,0.70
2023-03-07T17:48:08.296Z,1.10
2023-03-07T17:50:36.523Z,1.10
2023-03-07T17:53:04.531Z,0.60
2023-03-07T17:55:32.894Z,0.90
2023-03-07T17:58:02.333Z,1.00
2023-03-07T18:00:30.459Z,0.80
2023-03-07T18:02:58.565Z,1.00
2023-03-07T18:05:27.998Z,1.00
2023-03-07T18:07:56.793Z,0.83
2023-03-07T18:10:25.256Z,1.10
2023-03-07T18:12:54.791Z,0.67
2023-03-07T18:15:44.997Z,0.70
2023-03-07T18:18:35.069Z,0.90
2023-03-07T18:21:29.194Z,0.97
2023-03-07T18:28:26.219Z,1.50
2023-03-07T18:31:14.947Z,0.90
2023-03-07T18:33:50.919Z,0.97
2023-03-07T18:37:19.724Z,0.90
2023-03-07T18:45:02.649Z,0.40
2023-03-07T18:51:57.151Z,0.70
2023-03-07T18:58:31.782Z,0.60
2023-03-07T19:01:44.246Z,0.57
2023-03-07T19:04:31.509Z,0.47
2023-03-07T19:10:55.034Z,0.47
2023-03-07T19:21:30.924Z,0.60
2023-03-07T19:24:30.139Z,0.50
2023-03-07T19:26:59.995Z,0.80
2023-03-07T19:29:28.725Z,0.63
2023-03-07T19:32:23.652Z,0.80
2023-03-07T19:35:26.401Z,0.50
2023-03-07T19:38:50.363Z,0.50
2023-03-07T19:53:00.663Z,0.77
2023-03-07T19:59:08.508Z,0.70
2023-03-07T20:01:37.012Z,0.70
2023-03-07T20:04:08.078Z,0.80
2023-03-07T20:06:36.781Z,0.70
2023-03-07T20:09:18.883Z,1.00
2023-03-07T20:11:48.814Z,0.60
2023-03-07T20:17:47.235Z,0.57
2023-03-07T20:20:19.385Z,0.60
2023-03-07T20:22:47.844Z,0.80
2023-03-07T20:25:16.136Z,0.80
2023-03-07T20:27:45.691Z,1.20
2023-03-07T20:30:15.164Z,1.20
2023-03-07T20:32:47.027Z,4.10
2023-03-07T20:38:41.859Z,3.33
2023-03-07T20:41:16.764Z,2.87
2023-03-07T20:44:13.612Z,5.27
2023-03-07T20:47:12.019Z,4.07
2023-03-07T20:49:40.354Z,3.23
2023-03-07T20:52:36.964Z,1.93
2023-03-07T21:03:40.600Z,2.33
2023-03-07T21:06:09.246Z,2.10
2023-03-07T21:08:39.089Z,1.40
2023-03-07T21:11:10.066Z,1.70
2023-03-07T21:13:40.495Z,1.70
2023-03-07T21:16:11.939Z,1.63
2023-03-07T21:18:42.747Z,1.90
2023-03-07T21:21:24.915Z,1.90
2023-03-07T21:23:57.861Z,1.97
2023-03-07T21:29:25.423Z,2.10
2023-03-07T21:31:54.515Z,2.40
2023-03-07T21:34:24.218Z,2.13
2023-03-07T21:36:56.152Z,2.40
2023-03-07T21:39:25.530Z,2.17
2023-03-07T21:41:53.921Z,2.30
2023-03-07T21:44:34.453Z,2.07
2023-03-07T21:47:02.779Z,2.40
2023-03-07T21:49:32.988Z,2.03
2023-03-07T21:52:01.175Z,2.07
2023-03-07T21:54:29.431Z,2.40
2023-03-07T21:56:57.620Z,2.30
2023-03-07T21:59:28.245Z,2.77
2023-03-07T22:02:02.550Z,2.53
2023-03-07T22:04:35.041Z,2.40
2023-03-07T22:07:03.151Z,2.30
2023-03-07T22:09:31.303Z,2.30
2023-03-07T22:11:59.417Z,2.40
2023-03-07T22:14:27.487Z,2.30
2023-03-07T22:16:56.647Z,2.70
2023-03-07T22:19:24.760Z,2.40
2023-03-07T22:21:54.251Z,2.63
2023-03-07T22:24:22.341Z,2.57
2023-03-07T22:26:50.380Z,2.20
2023-03-07T22:29:18.552Z,1.90
2023-03-07T22:31:46.678Z,2.20
2023-03-07T22:34:15.357Z,2.10
2023-03-07T22:36:43.576Z,2.30
2023-03-07T22:39:13.048Z,2.73
2023-03-07T22:41:41.132Z,2.57
2023-03-07T22:44:09.186Z,2.10
2023-03-07T22:46:37.244Z,2.73
2023-03-07T22:49:05.360Z,2.40
2023-03-07T22:51:35.474Z,2.43
2023-03-07T22:54:04.383Z,2.17
2023-03-07T22:56:34.652Z,2.60
2023-03-07T22:59:03.709Z,2.60
2023-03-07T23:01:31.809Z,2.57
2023-03-07T23:04:01.278Z,2.40
2023-03-07T23:06:30.698Z,1.80
2023-03-07T23:08:59.732Z,1.83
2023-03-07T23:11:29.984Z,2.30
2023-03-07T23:13:59.596Z,2.30
2023-03-07T23:16:30.129Z,2.23
2023-03-07T23:18:59.890Z,2.50
2023-03-07T23:21:30.200Z,2.30
2023-03-07T23:23:59.458Z,2.33
2023-03-07T23:26:29.252Z,2.20
2023-03-07T23:28:59.180Z,2.43
2023-03-07T23:31:29.300Z,1.90
2023-03-07T23:33:59.017Z,2.33
2023-03-07T23:36:29.429Z,2.10
2023-03-07T23:38:58.239Z,1.80
2023-03-07T23:41:27.357Z,1.97
2023-03-07T23:43:56.773Z,1.90
2023-03-07T23:46:27.210Z,1.87
2023-03-07T23:48:56.001Z,1.77
2023-03-07T23:51:24.828Z,1.63
2023-03-07T23:53:52.975Z,1.80
2023-03-07T23:56:21.480Z,2.00
2023-03-07T23:58:50.916Z,1.50
